sensor_id;sensor_type;location;lat;lon;timestamp;P1;durP1;ratioP1;P2;durP2;ratioP2
35917;SDS011;22011;59.912;30.300;2022-10-16T00:01:15;17.00;;;8.43;;
35917;SDS011;22011;59.912;30.300;2022-10-16T00:03:44;12.15;;;8.38;;
35917;SDS011;22011;59.912;30.300;2022-10-16T00:06:13;14.48;;;9.63;;
35917;SDS011;22011;59.912;30.300;2022-10-16T00:08:44;10.63;;;8.48;;
35917;SDS011;22011;59.912;30.300;2022-10-16T00:11:12;9.63;;;7.85;;
35917;SDS011;22011;59.912;30.300;2022-10-16T00:13:42;8.98;;;8.07;;
35917;SDS011;22011;59.912;30.300;2022-10-16T00:16:10;14.02;;;8.73;;
35917;SDS011;22011;59.912;30.300;2022-10-16T00:18:39;17.83;;;8.95;;
35917;SDS011;22011;59.912;30.300;2022-10-16T00:21:08;12.25;;;8.68;;
35917;SDS011;22011;59.912;30.300;2022-10-16T00:23:37;12.10;;;8.35;;
35917;SDS011;22011;59.912;30.300;2022-10-16T00:26:07;11.05;;;8.13;;
35917;SDS011;22011;59.912;30.300;2022-10-16T00:28:37;11.07;;;7.13;;
35917;SDS011;22011;59.912;30.300;2022-10-16T00:31:05;9.10;;;7.30;;
35917;SDS011;22011;59.912;30.300;2022-10-16T00:33:34;13.07;;;7.20;;
35917;SDS011;22011;59.912;30.300;2022-10-16T00:36:03;9.88;;;8.48;;
35917;SDS011;22011;59.912;30.300;2022-10-16T00:38:31;10.65;;;8.75;;
35917;SDS011;22011;59.912;30.300;2022-10-16T00:40:59;10.95;;;8.30;;
35917;SDS011;22011;59.912;30.300;2022-10-16T00:43:35;13.95;;;7.53;;
35917;SDS011;22011;59.912;30.300;2022-10-16T00:46:07;13.13;;;8.63;;
35917;SDS011;22011;59.912;30.300;2022-10-16T00:48:40;13.13;;;7.97;;
35917;SDS011;22011;59.912;30.300;2022-10-16T00:51:11;11.27;;;8.73;;
35917;SDS011;22011;59.912;30.300;2022-10-16T00:53:39;8.48;;;7.45;;
35917;SDS011;22011;59.912;30.300;2022-10-16T00:56:06;11.20;;;7.45;;
35917;SDS011;22011;59.912;30.300;2022-10-16T00:58:35;10.20;;;7.70;;
35917;SDS011;22011;59.912;30.300;2022-10-16T01:01:03;9.70;;;7.88;;
35917;SDS011;22011;59.912;30.300;2022-10-16T01:03:32;11.82;;;7.78;;
35917;SDS011;22011;59.912;30.300;2022-10-16T01:06:21;11.65;;;7.60;;
35917;SDS011;22011;59.912;30.300;2022-10-16T01:11:47;11.23;;;7.80;;
35917;SDS011;22011;59.912;30.300;2022-10-16T01:14:24;13.48;;;7.97;;
35917;SDS011;22011;59.912;30.300;2022-10-16T01:16:55;8.27;;;7.22;;
35917;SDS011;22011;59.912;30.300;2022-10-16T01:19:32;10.05;;;8.20;;
35917;SDS011;22011;59.912;30.300;2022-10-16T01:22:11;9.05;;;8.02;;
35917;SDS011;22011;59.912;30.300;2022-10-16T01:24:40;9.50;;;6.95;;
35917;SDS011;22011;59.912;30.300;2022-10-16T01:27:13;9.93;;;7.55;;
35917;SDS011;22011;59.912;30.300;2022-10-16T01:29:46;8.65;;;7.30;;
35917;SDS011;22011;59.912;30.300;2022-10-16T01:32:23;9.88;;;7.70;;
35917;SDS011;22011;59.912;30.300;2022-10-16T01:34:58;10.77;;;8.23;;
35917;SDS011;22011;59.912;30.300;2022-10-16T01:37:32;9.13;;;6.97;;
35917;SDS011;22011;59.912;30.300;2022-10-16T01:40:05;10.68;;;7.93;;
35917;SDS011;22011;59.912;30.300;2022-10-16T01:42:37;12.60;;;7.90;;
35917;SDS011;22011;59.912;30.300;2022-10-16T01:45:09;9.98;;;7.72;;
35917;SDS011;22011;59.912;30.300;2022-10-16T01:47:40;10.63;;;7.22;;
35917;SDS011;22011;59.912;30.300;2022-10-16T01:50:09;10.87;;;7.37;;
35917;SDS011;22011;59.912;30.300;2022-10-16T01:52:39;9.55;;;7.18;;
35917;SDS011;22011;59.912;30.300;2022-10-16T01:55:09;13.65;;;8.02;;
35917;SDS011;22011;59.912;30.300;2022-10-16T01:57:43;11.93;;;8.73;;
35917;SDS011;22011;59.912;30.300;2022-10-16T02:00:13;12.48;;;7.10;;
35917;SDS011;22011;59.912;30.300;2022-10-16T02:02:45;24.27;;;8.77;;
35917;SDS011;22011;59.912;30.300;2022-10-16T02:05:16;15.27;;;7.32;;
35917;SDS011;22011;59.912;30.300;2022-10-16T02:07:48;11.13;;;8.13;;
35917;SDS011;22011;59.912;30.300;2022-10-16T02:10:16;11.00;;;7.63;;
35917;SDS011;22011;59.912;30.300;2022-10-16T02:12:46;12.40;;;7.85;;
35917;SDS011;22011;59.912;30.300;2022-10-16T02:15:18;10.95;;;7.85;;
35917;SDS011;22011;59.912;30.300;2022-10-16T02:17:45;12.60;;;9.05;;
35917;SDS011;22011;59.912;30.300;2022-10-16T02:20:13;10.70;;;7.72;;
35917;SDS011;22011;59.912;30.300;2022-10-16T02:22:42;10.70;;;8.07;;
35917;SDS011;22011;59.912;30.300;2022-10-16T02:25:15;12.93;;;9.48;;
35917;SDS011;22011;59.912;30.300;2022-10-16T02:27:49;10.63;;;8.75;;
35917;SDS011;22011;59.912;30.300;2022-10-16T02:30:22;13.23;;;9.57;;
35917;SDS011;22011;59.912;30.300;2022-10-16T02:32:52;12.52;;;8.27;;
35917;SDS011;22011;59.912;30.300;2022-10-16T02:35:21;13.52;;;8.43;;
35917;SDS011;22011;59.912;30.300;2022-10-16T02:37:51;12.30;;;9.10;;
35917;SDS011;22011;59.912;30.300;2022-10-16T02:40:19;13.82;;;8.88;;
35917;SDS011;22011;59.912;30.300;2022-10-16T02:42:51;11.52;;;8.98;;
35917;SDS011;22011;59.912;30.300;2022-10-16T02:45:19;12.27;;;8.45;;
35917;SDS011;22011;59.912;30.300;2022-10-16T02:47:47;11.57;;;7.60;;
35917;SDS011;22011;59.912;30.300;2022-10-16T02:50:15;11.65;;;7.95;;
35917;SDS011;22011;59.912;30.300;2022-10-16T02:52:43;12.50;;;7.57;;
35917;SDS011;22011;59.912;30.300;2022-10-16T02:55:11;10.88;;;7.63;;
35917;SDS011;22011;59.912;30.300;2022-10-16T02:57:38;10.32;;;7.50;;
35917;SDS011;22011;59.912;30.300;2022-10-16T03:00:09;11.40;;;8.10;;
35917;SDS011;22011;59.912;30.300;2022-10-16T03:02:39;9.68;;;7.15;;
35917;SDS011;22011;59.912;30.300;2022-10-16T03:05:07;10.93;;;7.65;;
35917;SDS011;22011;59.912;30.300;2022-10-16T03:07:36;9.88;;;7.57;;
35917;SDS011;22011;59.912;30.300;2022-10-16T03:10:04;10.32;;;8.00;;
35917;SDS011;22011;59.912;30.300;2022-10-16T03:12:32;8.88;;;7.57;;
35917;SDS011;22011;59.912;30.300;2022-10-16T03:14:59;8.90;;;7.45;;
35917;SDS011;22011;59.912;30.300;2022-10-16T03:17:29;13.07;;;8.32;;
35917;SDS011;22011;59.912;30.300;2022-10-16T03:19:56;12.82;;;8.15;;
35917;SDS011;22011;59.912;30.300;2022-10-16T03:22:24;10.20;;;7.13;;
35917;SDS011;22011;59.912;30.300;2022-10-16T03:24:51;11.85;;;7.93;;
35917;SDS011;22011;59.912;30.300;2022-10-16T03:27:19;9.70;;;7.57;;
35917;SDS011;22011;59.912;30.300;2022-10-16T03:29:46;10.13;;;7.90;;
35917;SDS011;22011;59.912;30.300;2022-10-16T03:32:14;10.68;;;8.52;;
35917;SDS011;22011;59.912;30.300;2022-10-16T03:34:42;12.13;;;7.60;;
35917;SDS011;22011;59.912;30.300;2022-10-16T03:37:10;12.00;;;7.78;;
35917;SDS011;22011;59.912;30.300;2022-10-16T03:39:37;10.23;;;8.00;;
35917;SDS011;22011;59.912;30.300;2022-10-16T03:42:06;13.45;;;7.90;;
35917;SDS011;22011;59.912;30.300;2022-10-16T03:44:33;10.38;;;7.60;;
35917;SDS011;22011;59.912;30.300;2022-10-16T03:47:01;16.13;;;8.25;;
35917;SDS011;22011;59.912;30.300;2022-10-16T03:49:28;13.10;;;8.25;;
35917;SDS011;22011;59.912;30.300;2022-10-16T03:51:57;9.07;;;7.45;;
35917;SDS011;22011;59.912;30.300;2022-10-16T03:54:24;12.25;;;8.10;;
35917;SDS011;22011;59.912;30.300;2022-10-16T03:56:52;12.05;;;7.75;;
35917;SDS011;22011;59.912;30.300;2022-10-16T03:59:20;9.68;;;7.75;;
35917;SDS011;22011;59.912;30.300;2022-10-16T04:01:47;13.23;;;8.15;;
35917;SDS011;22011;59.912;30.300;2022-10-16T04:04:15;10.55;;;8.85;;
35917;SDS011;22011;59.912;30.300;2022-10-16T04:06:42;15.82;;;9.18;;
35917;SDS011;22011;59.912;30.300;2022-10-16T04:09:11;11.65;;;8.05;;
35917;SDS011;22011;59.912;30.300;2022-10-16T04:11:39;8.95;;;7.05;;
35917;SDS011;22011;59.912;30.300;2022-10-16T04:14:06;9.30;;;7.63;;
35917;SDS011;22011;59.912;30.300;2022-10-16T04:16:35;12.18;;;7.47;;
35917;SDS011;22011;59.912;30.300;2022-10-16T04:19:02;16.77;;;8.23;;
35917;SDS011;22011;59.912;30.300;2022-10-16T04:21:30;14.82;;;8.40;;
35917;SDS011;22011;59.912;30.300;2022-10-16T04:23:57;13.10;;;8.43;;
35917;SDS011;22011;59.912;30.300;2022-10-16T04:26:26;9.68;;;7.75;;
35917;SDS011;22011;59.912;30.300;2022-10-16T04:28:54;14.43;;;8.57;;
35917;SDS011;22011;59.912;30.300;2022-10-16T04:31:21;11.38;;;8.55;;
35917;SDS011;22011;59.912;30.300;2022-10-16T04:33:49;9.90;;;7.90;;
35917;SDS011;22011;59.912;30.300;2022-10-16T04:36:16;9.63;;;7.00;;
35917;SDS011;22011;59.912;30.300;2022-10-16T04:38:44;12.50;;;7.55;;
35917;SDS011;22011;59.912;30.300;2022-10-16T04:41:11;13.10;;;7.95;;
35917;SDS011;22011;59.912;30.300;2022-10-16T04:43:40;11.23;;;7.53;;
35917;SDS011;22011;59.912;30.300;2022-10-16T04:46:08;15.75;;;8.57;;
35917;SDS011;22011;59.912;30.300;2022-10-16T04:48:36;11.00;;;8.15;;
35917;SDS011;22011;59.912;30.300;2022-10-16T04:51:03;12.25;;;8.00;;
35917;SDS011;22011;59.912;30.300;2022-10-16T04:53:31;11.13;;;7.50;;
35917;SDS011;22011;59.912;30.300;2022-10-16T04:55:59;8.98;;;7.53;;
35917;SDS011;22011;59.912;30.300;2022-10-16T04:58:26;10.45;;;7.35;;
35917;SDS011;22011;59.912;30.300;2022-10-16T05:00:55;10.35;;;7.43;;
35917;SDS011;22011;59.912;30.300;2022-10-16T05:03:22;13.32;;;8.13;;
35917;SDS011;22011;59.912;30.300;2022-10-16T05:05:50;11.52;;;8.07;;
35917;SDS011;22011;59.912;30.300;2022-10-16T05:08:17;10.90;;;7.50;;
35917;SDS011;22011;59.912;30.300;2022-10-16T05:10:45;13.02;;;7.43;;
35917;SDS011;22011;59.912;30.300;2022-10-16T05:13:13;10.27;;;6.97;;
35917;SDS011;22011;59.912;30.300;2022-10-16T05:15:40;10.93;;;8.10;;
35917;SDS011;22011;59.912;30.300;2022-10-16T05:18:09;10.48;;;7.15;;
35917;SDS011;22011;59.912;30.300;2022-10-16T05:20:37;12.77;;;7.65;;
35917;SDS011;22011;59.912;30.300;2022-10-16T05:23:04;9.40;;;7.00;;
35917;SDS011;22011;59.912;30.300;2022-10-16T05:25:32;20.08;;;8.35;;
35917;SDS011;22011;59.912;30.300;2022-10-16T05:27:59;12.68;;;7.93;;
35917;SDS011;22011;59.912;30.300;2022-10-16T05:30:27;9.93;;;7.45;;
35917;SDS011;22011;59.912;30.300;2022-10-16T05:32:54;10.52;;;7.80;;
35917;SDS011;22011;59.912;30.300;2022-10-16T05:35:23;10.32;;;7.43;;
35917;SDS011;22011;59.912;30.300;2022-10-16T05:37:50;12.70;;;7.95;;
35917;SDS011;22011;59.912;30.300;2022-10-16T05:40:19;9.45;;;7.68;;
35917;SDS011;22011;59.912;30.300;2022-10-16T05:42:47;12.15;;;7.20;;
35917;SDS011;22011;59.912;30.300;2022-10-16T05:45:14;12.80;;;7.50;;
35917;SDS011;22011;59.912;30.300;2022-10-16T05:47:42;10.82;;;7.80;;
35917;SDS011;22011;59.912;30.300;2022-10-16T05:50:09;11.50;;;7.50;;
35917;SDS011;22011;59.912;30.300;2022-10-16T05:52:38;10.65;;;7.13;;
35917;SDS011;22011;59.912;30.300;2022-10-16T05:55:06;11.90;;;7.60;;
35917;SDS011;22011;59.912;30.300;2022-10-16T05:57:34;13.60;;;7.90;;
35917;SDS011;22011;59.912;30.300;2022-10-16T06:00:02;11.50;;;8.23;;
35917;SDS011;22011;59.912;30.300;2022-10-16T06:02:38;12.35;;;8.05;;
35917;SDS011;22011;59.912;30.300;2022-10-16T06:05:06;15.70;;;6.90;;
35917;SDS011;22011;59.912;30.300;2022-10-16T06:07:33;14.07;;;8.43;;
35917;SDS011;22011;59.912;30.300;2022-10-16T06:10:04;12.75;;;7.20;;
35917;SDS011;22011;59.912;30.300;2022-10-16T06:14:59;10.85;;;7.45;;
35917;SDS011;22011;59.912;30.300;2022-10-16T06:17:27;14.05;;;7.00;;
35917;SDS011;22011;59.912;30.300;2022-10-16T06:19:54;10.55;;;7.68;;
35917;SDS011;22011;59.912;30.300;2022-10-16T06:22:22;15.48;;;7.15;;
35917;SDS011;22011;59.912;30.300;2022-10-16T06:24:49;16.35;;;7.13;;
35917;SDS011;22011;59.912;30.300;2022-10-16T06:27:18;13.40;;;7.18;;
35917;SDS011;22011;59.912;30.300;2022-10-16T06:29:46;11.45;;;7.05;;
35917;SDS011;22011;59.912;30.300;2022-10-16T06:32:13;13.35;;;7.40;;
35917;SDS011;22011;59.912;30.300;2022-10-16T06:34:41;12.63;;;8.05;;
35917;SDS011;22011;59.912;30.300;2022-10-16T06:37:08;11.60;;;6.85;;
35917;SDS011;22011;59.912;30.300;2022-10-16T06:39:36;12.88;;;6.68;;
35917;SDS011;22011;59.912;30.300;2022-10-16T06:42:03;12.52;;;7.03;;
35917;SDS011;22011;59.912;30.300;2022-10-16T06:44:36;12.90;;;7.82;;
35917;SDS011;22011;59.912;30.300;2022-10-16T06:47:04;10.73;;;7.40;;
35917;SDS011;22011;59.912;30.300;2022-10-16T06:49:31;10.60;;;6.78;;
35917;SDS011;22011;59.912;30.300;2022-10-16T06:51:59;10.02;;;6.72;;
35917;SDS011;22011;59.912;30.300;2022-10-16T06:54:27;10.93;;;6.70;;
35917;SDS011;22011;59.912;30.300;2022-10-16T06:56:54;10.20;;;7.45;;
35917;SDS011;22011;59.912;30.300;2022-10-16T06:59:22;14.15;;;7.30;;
35917;SDS011;22011;59.912;30.300;2022-10-16T07:01:51;9.93;;;6.90;;
35917;SDS011;22011;59.912;30.300;2022-10-16T07:04:19;11.40;;;7.43;;
35917;SDS011;22011;59.912;30.300;2022-10-16T07:06:46;10.82;;;7.25;;
35917;SDS011;22011;59.912;30.300;2022-10-16T07:09:13;9.77;;;7.13;;
35917;SDS011;22011;59.912;30.300;2022-10-16T07:11:41;13.98;;;7.65;;
35917;SDS011;22011;59.912;30.300;2022-10-16T07:14:12;11.30;;;7.28;;
35917;SDS011;22011;59.912;30.300;2022-10-16T07:16:43;8.10;;;6.55;;
35917;SDS011;22011;59.912;30.300;2022-10-16T07:19:12;23.75;;;7.60;;
35917;SDS011;22011;59.912;30.300;2022-10-16T07:21:41;10.13;;;7.20;;
35917;SDS011;22011;59.912;30.300;2022-10-16T07:24:11;12.13;;;7.53;;
35917;SDS011;22011;59.912;30.300;2022-10-16T07:26:40;12.10;;;6.93;;
35917;SDS011;22011;59.912;30.300;2022-10-16T07:29:11;11.65;;;7.07;;
35917;SDS011;22011;59.912;30.300;2022-10-16T07:31:40;11.25;;;7.65;;
35917;SDS011;22011;59.912;30.300;2022-10-16T07:34:08;15.27;;;7.97;;
35917;SDS011;22011;59.912;30.300;2022-10-16T07:36:37;11.32;;;7.28;;
35917;SDS011;22011;59.912;30.300;2022-10-16T07:39:05;11.63;;;7.93;;
35917;SDS011;22011;59.912;30.300;2022-10-16T07:41:33;10.55;;;7.53;;
35917;SDS011;22011;59.912;30.300;2022-10-16T07:44:02;9.75;;;6.80;;
35917;SDS011;22011;59.912;30.300;2022-10-16T07:46:30;10.93;;;6.95;;
35917;SDS011;22011;59.912;30.300;2022-10-16T07:48:59;9.77;;;7.93;;
35917;SDS011;22011;59.912;30.300;2022-10-16T07:51:27;14.45;;;7.38;;
35917;SDS011;22011;59.912;30.300;2022-10-16T07:53:55;10.65;;;7.30;;
35917;SDS011;22011;59.912;30.300;2022-10-16T07:56:23;13.70;;;7.15;;
35917;SDS011;22011;59.912;30.300;2022-10-16T07:58:51;12.73;;;7.53;;
35917;SDS011;22011;59.912;30.300;2022-10-16T08:01:19;13.68;;;7.25;;
35917;SDS011;22011;59.912;30.300;2022-10-16T08:03:47;14.07;;;7.45;;
35917;SDS011;22011;59.912;30.300;2022-10-16T08:06:16;11.05;;;6.95;;
35917;SDS011;22011;59.912;30.300;2022-10-16T08:08:44;10.98;;;6.53;;
35917;SDS011;22011;59.912;30.300;2022-10-16T08:11:13;12.13;;;7.65;;
35917;SDS011;22011;59.912;30.300;2022-10-16T08:13:41;15.48;;;7.80;;
35917;SDS011;22011;59.912;30.300;2022-10-16T08:16:08;11.32;;;7.03;;
35917;SDS011;22011;59.912;30.300;2022-10-16T08:18:37;12.98;;;7.25;;
35917;SDS011;22011;59.912;30.300;2022-10-16T08:21:05;12.30;;;6.95;;
35917;SDS011;22011;59.912;30.300;2022-10-16T08:23:34;14.18;;;7.32;;
35917;SDS011;22011;59.912;30.300;2022-10-16T08:26:02;9.50;;;6.85;;
35917;SDS011;22011;59.912;30.300;2022-10-16T08:28:34;11.75;;;7.00;;
35917;SDS011;22011;59.912;30.300;2022-10-16T08:31:05;12.00;;;6.90;;
35917;SDS011;22011;59.912;30.300;2022-10-16T08:33:37;12.38;;;6.97;;
35917;SDS011;22011;59.912;30.300;2022-10-16T08:36:05;11.10;;;7.22;;
35917;SDS011;22011;59.912;30.300;2022-10-16T08:38:33;14.27;;;7.22;;
35917;SDS011;22011;59.912;30.300;2022-10-16T08:41:03;12.65;;;7.75;;
35917;SDS011;22011;59.912;30.300;2022-10-16T08:43:55;9.88;;;6.65;;
35917;SDS011;22011;59.912;30.300;2022-10-16T08:46:44;15.05;;;7.45;;
35917;SDS011;22011;59.912;30.300;2022-10-16T08:49:18;12.27;;;6.68;;
35917;SDS011;22011;59.912;30.300;2022-10-16T08:51:45;15.73;;;7.90;;
35917;SDS011;22011;59.912;30.300;2022-10-16T08:54:19;12.65;;;7.57;;
35917;SDS011;22011;59.912;30.300;2022-10-16T08:56:53;10.85;;;6.90;;
35917;SDS011;22011;59.912;30.300;2022-10-16T08:59:23;13.80;;;7.28;;
35917;SDS011;22011;59.912;30.300;2022-10-16T09:01:50;15.25;;;7.22;;
35917;SDS011;22011;59.912;30.300;2022-10-16T09:04:39;11.05;;;7.18;;
35917;SDS011;22011;59.912;30.300;2022-10-16T09:07:25;12.75;;;7.38;;
35917;SDS011;22011;59.912;30.300;2022-10-16T09:10:04;9.98;;;6.47;;
35917;SDS011;22011;59.912;30.300;2022-10-16T09:15:16;10.35;;;6.72;;
35917;SDS011;22011;59.912;30.300;2022-10-16T09:17:54;11.75;;;8.18;;
35917;SDS011;22011;59.912;30.300;2022-10-16T09:20:29;12.48;;;7.03;;
35917;SDS011;22011;59.912;30.300;2022-10-16T09:23:12;11.70;;;8.18;;
35917;SDS011;22011;59.912;30.300;2022-10-16T09:25:43;15.50;;;6.97;;
35917;SDS011;22011;59.912;30.300;2022-10-16T09:28:13;11.95;;;7.45;;
35917;SDS011;22011;59.912;30.300;2022-10-16T09:30:43;11.63;;;6.85;;
35917;SDS011;22011;59.912;30.300;2022-10-16T09:33:11;11.77;;;7.15;;
35917;SDS011;22011;59.912;30.300;2022-10-16T09:35:40;14.25;;;8.48;;
35917;SDS011;22011;59.912;30.300;2022-10-16T09:38:20;12.90;;;7.80;;
35917;SDS011;22011;59.912;30.300;2022-10-16T09:40:48;12.50;;;8.30;;
35917;SDS011;22011;59.912;30.300;2022-10-16T09:43:19;11.18;;;7.40;;
35917;SDS011;22011;59.912;30.300;2022-10-16T09:45:55;15.07;;;7.05;;
35917;SDS011;22011;59.912;30.300;2022-10-16T09:48:25;15.05;;;7.68;;
35917;SDS011;22011;59.912;30.300;2022-10-16T09:50:57;15.43;;;6.78;;
35917;SDS011;22011;59.912;30.300;2022-10-16T09:53:26;10.27;;;7.55;;
35917;SDS011;22011;59.912;30.300;2022-10-16T09:56:05;12.48;;;6.85;;
35917;SDS011;22011;59.912;30.300;2022-10-16T09:58:33;12.00;;;7.45;;
35917;SDS011;22011;59.912;30.300;2022-10-16T10:01:02;11.07;;;7.28;;
35917;SDS011;22011;59.912;30.300;2022-10-16T10:03:34;10.10;;;7.07;;
35917;SDS011;22011;59.912;30.300;2022-10-16T10:06:06;11.43;;;7.15;;
35917;SDS011;22011;59.912;30.300;2022-10-16T10:08:56;13.30;;;6.97;;
35917;SDS011;22011;59.912;30.300;2022-10-16T10:11:38;10.90;;;7.65;;
35917;SDS011;22011;59.912;30.300;2022-10-16T10:14:17;15.68;;;8.80;;
35917;SDS011;22011;59.912;30.300;2022-10-16T10:17:07;13.50;;;8.38;;
35917;SDS011;22011;59.912;30.300;2022-10-16T10:19:38;18.53;;;8.23;;
35917;SDS011;22011;59.912;30.300;2022-10-16T10:22:17;21.17;;;7.87;;
35917;SDS011;22011;59.912;30.300;2022-10-16T10:24:55;14.07;;;7.85;;
35917;SDS011;22011;59.912;30.300;2022-10-16T10:27:43;12.50;;;6.78;;
35917;SDS011;22011;59.912;30.300;2022-10-16T10:30:18;12.23;;;8.15;;
35917;SDS011;22011;59.912;30.300;2022-10-16T10:32:55;12.85;;;8.05;;
35917;SDS011;22011;59.912;30.300;2022-10-16T10:35:38;16.05;;;8.10;;
35917;SDS011;22011;59.912;30.300;2022-10-16T10:38:16;12.18;;;7.72;;
35917;SDS011;22011;59.912;30.300;2022-10-16T10:40:56;12.70;;;7.30;;
35917;SDS011;22011;59.912;30.300;2022-10-16T10:43:41;16.27;;;7.00;;
35917;SDS011;22011;59.912;30.300;2022-10-16T10:46:22;10.00;;;6.47;;
35917;SDS011;22011;59.912;30.300;2022-10-16T10:49:10;10.02;;;6.50;;
35917;SDS011;22011;59.912;30.300;2022-10-16T10:51:53;9.52;;;6.53;;
35917;SDS011;22011;59.912;30.300;2022-10-16T10:54:34;10.50;;;6.22;;
35917;SDS011;22011;59.912;30.300;2022-10-16T10:57:10;8.15;;;6.78;;
35917;SDS011;22011;59.912;30.300;2022-10-16T10:59:58;14.13;;;7.57;;
35917;SDS011;22011;59.912;30.300;2022-10-16T11:02:37;12.05;;;6.57;;
35917;SDS011;22011;59.912;30.300;2022-10-16T11:08:10;12.93;;;6.55;;
35917;SDS011;22011;59.912;30.300;2022-10-16T11:10:48;8.50;;;5.95;;
35917;SDS011;22011;59.912;30.300;2022-10-16T11:13:24;11.05;;;6.38;;
35917;SDS011;22011;59.912;30.300;2022-10-16T11:15:58;14.45;;;6.47;;
35917;SDS011;22011;59.912;30.300;2022-10-16T11:18:30;10.15;;;5.97;;
35917;SDS011;22011;59.912;30.300;2022-10-16T11:21:07;14.60;;;6.40;;
35917;SDS011;22011;59.912;30.300;2022-10-16T11:23:40;16.42;;;7.07;;
35917;SDS011;22011;59.912;30.300;2022-10-16T11:26:14;15.63;;;7.18;;
35917;SDS011;22011;59.912;30.300;2022-10-16T11:28:47;8.25;;;6.38;;
35917;SDS011;22011;59.912;30.300;2022-10-16T11:31:18;11.73;;;7.25;;
35917;SDS011;22011;59.912;30.300;2022-10-16T11:33:54;9.65;;;6.57;;
35917;SDS011;22011;59.912;30.300;2022-10-16T11:36:31;8.57;;;6.30;;
35917;SDS011;22011;59.912;30.300;2022-10-16T11:39:06;11.00;;;6.20;;
35917;SDS011;22011;59.912;30.300;2022-10-16T11:41:45;12.88;;;5.90;;
35917;SDS011;22011;59.912;30.300;2022-10-16T11:44:19;11.98;;;6.97;;
35917;SDS011;22011;59.912;30.300;2022-10-16T11:46:58;9.10;;;6.30;;
35917;SDS011;22011;59.912;30.300;2022-10-16T11:49:35;11.27;;;6.00;;
35917;SDS011;22011;59.912;30.300;2022-10-16T11:52:07;8.55;;;6.15;;
35917;SDS011;22011;59.912;30.300;2022-10-16T11:54:45;13.53;;;6.60;;
35917;SDS011;22011;59.912;30.300;2022-10-16T11:57:17;8.38;;;6.40;;
35917;SDS011;22011;59.912;30.300;2022-10-16T11:59:51;12.25;;;7.30;;
35917;SDS011;22011;59.912;30.300;2022-10-16T12:02:29;12.65;;;7.80;;
35917;SDS011;22011;59.912;30.300;2022-10-16T12:05:10;8.77;;;6.47;;
35917;SDS011;22011;59.912;30.300;2022-10-16T12:07:48;10.10;;;6.90;;
35917;SDS011;22011;59.912;30.300;2022-10-16T12:10:24;9.75;;;6.40;;
35917;SDS011;22011;59.912;30.300;2022-10-16T12:12:53;16.38;;;7.05;;
35917;SDS011;22011;59.912;30.300;2022-10-16T12:15:23;9.02;;;7.35;;
35917;SDS011;22011;59.912;30.300;2022-10-16T12:17:52;9.98;;;7.97;;
35917;SDS011;22011;59.912;30.300;2022-10-16T12:20:22;9.77;;;7.10;;
35917;SDS011;22011;59.912;30.300;2022-10-16T12:22:58;10.75;;;6.30;;
35917;SDS011;22011;59.912;30.300;2022-10-16T12:25:28;11.10;;;7.00;;
35917;SDS011;22011;59.912;30.300;2022-10-16T12:30:30;11.80;;;7.63;;
35917;SDS011;22011;59.912;30.300;2022-10-16T12:33:00;10.88;;;8.00;;
35917;SDS011;22011;59.912;30.300;2022-10-16T12:35:30;10.73;;;8.07;;
35917;SDS011;22011;59.912;30.300;2022-10-16T12:38:07;11.07;;;6.73;;
35917;SDS011;22011;59.912;30.300;2022-10-16T12:40:43;11.52;;;6.60;;
35917;SDS011;22011;59.912;30.300;2022-10-16T12:45:58;12.48;;;6.28;;
35917;SDS011;22011;59.912;30.300;2022-10-16T12:48:30;10.13;;;7.13;;
35917;SDS011;22011;59.912;30.300;2022-10-16T12:51:09;11.70;;;7.65;;
35917;SDS011;22011;59.912;30.300;2022-10-16T12:53:38;10.93;;;7.72;;
35917;SDS011;22011;59.912;30.300;2022-10-16T12:56:09;12.73;;;7.68;;
35917;SDS011;22011;59.912;30.300;2022-10-16T12:58:47;10.02;;;8.07;;
35917;SDS011;22011;59.912;30.300;2022-10-16T13:01:33;10.98;;;7.50;;
35917;SDS011;22011;59.912;30.300;2022-10-16T13:04:14;10.10;;;6.78;;
35917;SDS011;22011;59.912;30.300;2022-10-16T13:06:56;10.90;;;7.40;;
35917;SDS011;22011;59.912;30.300;2022-10-16T13:09:35;12.07;;;6.90;;
35917;SDS011;22011;59.912;30.300;2022-10-16T13:12:16;11.20;;;7.90;;
35917;SDS011;22011;59.912;30.300;2022-10-16T13:15:16;10.57;;;7.95;;
35917;SDS011;22011;59.912;30.300;2022-10-16T13:17:55;13.75;;;7.97;;
35917;SDS011;22011;59.912;30.300;2022-10-16T13:20:29;8.90;;;7.47;;
35917;SDS011;22011;59.912;30.300;2022-10-16T13:23:04;12.40;;;8.32;;
35917;SDS011;22011;59.912;30.300;2022-10-16T13:25:45;11.90;;;7.72;;
35917;SDS011;22011;59.912;30.300;2022-10-16T13:28:28;13.85;;;8.57;;
35917;SDS011;22011;59.912;30.300;2022-10-16T13:30:59;10.55;;;7.85;;
35917;SDS011;22011;59.912;30.300;2022-10-16T13:33:30;15.68;;;9.18;;
35917;SDS011;22011;59.912;30.300;2022-10-16T13:36:00;14.82;;;9.60;;
35917;SDS011;22011;59.912;30.300;2022-10-16T13:38:29;13.55;;;10.45;;
35917;SDS011;22011;59.912;30.300;2022-10-16T13:41:00;10.85;;;8.57;;
35917;SDS011;22011;59.912;30.300;2022-10-16T13:45:59;13.52;;;9.05;;
35917;SDS011;22011;59.912;30.300;2022-10-16T13:48:28;14.50;;;8.88;;
35917;SDS011;22011;59.912;30.300;2022-10-16T13:50:58;13.27;;;9.63;;
35917;SDS011;22011;59.912;30.300;2022-10-16T13:53:31;14.75;;;8.63;;
35917;SDS011;22011;59.912;30.300;2022-10-16T13:56:01;16.07;;;9.73;;
35917;SDS011;22011;59.912;30.300;2022-10-16T13:58:31;12.27;;;9.50;;
35917;SDS011;22011;59.912;30.300;2022-10-16T14:00:59;14.50;;;9.57;;
35917;SDS011;22011;59.912;30.300;2022-10-16T14:03:29;15.50;;;11.75;;
35917;SDS011;22011;59.912;30.300;2022-10-16T14:05:58;16.65;;;9.98;;
35917;SDS011;22011;59.912;30.300;2022-10-16T14:08:28;15.73;;;10.63;;
35917;SDS011;22011;59.912;30.300;2022-10-16T14:10:57;19.08;;;10.65;;
35917;SDS011;22011;59.912;30.300;2022-10-16T14:13:34;15.80;;;10.63;;
35917;SDS011;22011;59.912;30.300;2022-10-16T14:16:07;15.75;;;10.82;;
35917;SDS011;22011;59.912;30.300;2022-10-16T14:18:37;17.13;;;11.25;;
35917;SDS011;22011;59.912;30.300;2022-10-16T14:21:07;18.52;;;11.40;;
35917;SDS011;22011;59.912;30.300;2022-10-16T14:23:40;22.38;;;11.95;;
35917;SDS011;22011;59.912;30.300;2022-10-16T14:26:12;17.35;;;11.13;;
35917;SDS011;22011;59.912;30.300;2022-10-16T14:28:42;15.55;;;11.13;;
35917;SDS011;22011;59.912;30.300;2022-10-16T14:31:23;21.85;;;12.35;;
35917;SDS011;22011;59.912;30.300;2022-10-16T14:33:55;16.50;;;12.32;;
35917;SDS011;22011;59.912;30.300;2022-10-16T14:36:23;20.92;;;12.15;;
35917;SDS011;22011;59.912;30.300;2022-10-16T14:38:57;25.27;;;14.13;;
35917;SDS011;22011;59.912;30.300;2022-10-16T14:41:28;25.70;;;14.38;;
35917;SDS011;22011;59.912;30.300;2022-10-16T14:44:00;23.20;;;13.82;;
35917;SDS011;22011;59.912;30.300;2022-10-16T14:46:31;21.73;;;13.13;;
35917;SDS011;22011;59.912;30.300;2022-10-16T14:49:03;23.52;;;14.40;;
35917;SDS011;22011;59.912;30.300;2022-10-16T14:51:41;22.80;;;14.75;;
35917;SDS011;22011;59.912;30.300;2022-10-16T14:54:10;25.50;;;13.20;;
35917;SDS011;22011;59.912;30.300;2022-10-16T14:56:42;18.65;;;13.40;;
35917;SDS011;22011;59.912;30.300;2022-10-16T14:59:17;21.80;;;12.07;;
35917;SDS011;22011;59.912;30.300;2022-10-16T15:01:46;19.40;;;12.65;;
35917;SDS011;22011;59.912;30.300;2022-10-16T15:04:14;20.65;;;13.50;;
35917;SDS011;22011;59.912;30.300;2022-10-16T15:06:42;24.98;;;14.07;;